sensor_id;sensor_type;location;lat;lon;timestamp;pressure;altitude;pressure_sealevel;temperature;humidity
85304;BME280;75708;47.930;13.782;2024-02-04T00:01:52;96930.47;;;6.87;79.41
85304;BME280;75708;47.930;13.782;2024-02-04T00:04:17;96917.81;;;6.75;80.38
85304;BME280;75708;47.930;13.782;2024-02-04T00:06:43;96917.16;;;7.26;76.39
85304;BME280;75708;47.930;13.782;2024-02-04T00:09:09;96902.03;;;7.27;77.31
85304;BME280;75708;47.930;13.782;2024-02-04T00:11:34;96883.88;;;7.17;77.38
85304;BME280;75708;47.930;13.782;2024-02-04T00:14:00;96913.91;;;7.24;76.54
85304;BME280;75708;47.930;13.782;2024-02-04T00:16:26;96906.38;;;7.01;78.44
85304;BME280;75708;47.930;13.782;2024-02-04T00:18:52;96906.16;;;6.96;78.36
85304;BME280;75708;47.930;13.782;2024-02-04T00:21:18;96937.63;;;6.93;79.26
85304;BME280;75708;47.930;13.782;2024-02-04T00:23:44;96938.41;;;7.33;76.65
85304;BME280;75708;47.930;13.782;2024-02-04T00:26:10;96928.22;;;7.10;79.45
85304;BME280;75708;47.930;13.782;2024-02-04T00:28:35;96917.59;;;7.10;77.74
85304;BME280;75708;47.930;13.782;2024-02-04T00:31:01;96923.53;;;6.99;79.15
85304;BME280;75708;47.930;13.782;2024-02-04T00:33:27;96919.22;;;7.04;78.64
85304;BME280;75708;47.930;13.782;2024-02-04T00:35:52;96907.97;;;7.29;75.66
85304;BME280;75708;47.930;13.782;2024-02-04T00:38:18;96935.97;;;7.25;78.31
85304;BME280;75708;47.930;13.782;2024-02-04T00:40:44;96917.59;;;7.16;77.21
85304;BME280;75708;47.930;13.782;2024-02-04T00:43:09;96939.00;;;7.41;76.05
85304;BME280;75708;47.930;13.782;2024-02-04T00:45:35;96930.88;;;7.16;78.07
85304;BME280;75708;47.930;13.782;2024-02-04T00:48:01;96934.75;;;7.21;77.13
85304;BME280;75708;47.930;13.782;2024-02-04T00:50:27;96929.66;;;7.19;77.74
85304;BME280;75708;47.930;13.782;2024-02-04T00:52:53;96916.72;;;7.42;75.93
85304;BME280;75708;47.930;13.782;2024-02-04T00:55:19;96930.00;;;7.42;75.67
85304;BME280;75708;47.930;13.782;2024-02-04T00:57:45;96923.66;;;7.50;74.95
85304;BME280;75708;47.930;13.782;2024-02-04T01:00:11;96921.63;;;7.39;76.47
85304;BME280;75708;47.930;13.782;2024-02-04T01:02:38;96922.84;;;7.49;75.29
85304;BME280;75708;47.930;13.782;2024-02-04T01:05:05;96915.88;;;7.55;75.52
85304;BME280;75708;47.930;13.782;2024-02-04T01:07:30;96912.38;;;7.61;74.16
85304;BME280;75708;47.930;13.782;2024-02-04T01:09:56;96920.16;;;7.63;74.49
85304;BME280;75708;47.930;13.782;2024-02-04T01:12:22;96920.34;;;7.68;73.85
85304;BME280;75708;47.930;13.782;2024-02-04T01:14:47;96909.31;;;7.57;74.31
85304;BME280;75708;47.930;13.782;2024-02-04T01:17:13;96921.78;;;7.64;74.64
85304;BME280;75708;47.930;13.782;2024-02-04T01:19:39;96900.53;;;7.50;74.15
85304;BME280;75708;47.930;13.782;2024-02-04T01:22:04;96911.97;;;7.57;75.09
85304;BME280;75708;47.930;13.782;2024-02-04T01:24:31;96891.81;;;7.37;76.10
85304;BME280;75708;47.930;13.782;2024-02-04T01:26:57;96913.03;;;7.50;74.19
85304;BME280;75708;47.930;13.782;2024-02-04T01:29:23;96913.78;;;7.70;73.10
85304;BME280;75708;47.930;13.782;2024-02-04T01:31:48;96894.75;;;7.67;73.50
85304;BME280;75708;47.930;13.782;2024-02-04T01:34:14;96905.63;;;7.59;74.87
85304;BME280;75708;47.930;13.782;2024-02-04T01:36:40;96907.09;;;7.54;74.50
85304;BME280;75708;47.930;13.782;2024-02-04T01:39:05;96897.03;;;7.56;73.46
85304;BME280;75708;47.930;13.782;2024-02-04T01:41:32;96915.88;;;7.55;75.44
85304;BME280;75708;47.930;13.782;2024-02-04T01:43:59;96916.66;;;7.69;74.21
85304;BME280;75708;47.930;13.782;2024-02-04T01:46:24;96906.22;;;7.67;73.50
85304;BME280;75708;47.930;13.782;2024-02-04T01:48:50;96909.75;;;7.54;75.03
85304;BME280;75708;47.930;13.782;2024-02-04T01:51:17;96894.63;;;7.48;74.52
85304;BME280;75708;47.930;13.782;2024-02-04T01:53:45;96899.50;;;7.58;73.60
85304;BME280;75708;47.930;13.782;2024-02-04T01:56:12;96874.50;;;7.72;74.28
85304;BME280;75708;47.930;13.782;2024-02-04T01:58:39;96877.84;;;7.48;76.31
85304;BME280;75708;47.930;13.782;2024-02-04T02:01:05;96876.44;;;7.45;75.51
85304;BME280;75708;47.930;13.782;2024-02-04T02:03:31;96855.13;;;7.59;74.80
85304;BME280;75708;47.930;13.782;2024-02-04T02:05:59;96864.75;;;7.53;75.00
85304;BME280;75708;47.930;13.782;2024-02-04T02:08:25;96865.00;;;7.45;75.46
85304;BME280;75708;47.930;13.782;2024-02-04T02:10:57;96873.44;;;7.29;76.68
85304;BME280;75708;47.930;13.782;2024-02-04T02:13:29;96870.91;;;7.40;76.48
85304;BME280;75708;47.930;13.782;2024-02-04T02:16:05;96879.47;;;7.49;75.28
85304;BME280;75708;47.930;13.782;2024-02-04T02:18:59;96882.50;;;7.66;73.97
85304;BME280;75708;47.930;13.782;2024-02-04T02:26:50;96891.53;;;7.58;75.11
85304;BME280;75708;47.930;13.782;2024-02-04T02:29:16;96855.31;;;7.57;74.04
85304;BME280;75708;47.930;13.782;2024-02-04T02:31:42;96857.41;;;7.55;74.46
85304;BME280;75708;47.930;13.782;2024-02-04T02:34:09;96873.56;;;7.53;74.53
85304;BME280;75708;47.930;13.782;2024-02-04T02:36:46;96874.66;;;7.84;71.91
85304;BME280;75708;47.930;13.782;2024-02-04T02:39:18;96881.22;;;7.75;72.60
85304;BME280;75708;47.930;13.782;2024-02-04T02:41:50;96886.31;;;7.83;71.36
85304;BME280;75708;47.930;13.782;2024-02-04T02:44:19;96901.22;;;7.90;71.84
85304;BME280;75708;47.930;13.782;2024-02-04T02:46:47;96907.63;;;7.76;72.92
85304;BME280;75708;47.930;13.782;2024-02-04T02:49:13;96885.59;;;7.63;73.37
85304;BME280;75708;47.930;13.782;2024-02-04T02:51:39;96904.00;;;7.57;73.92
85304;BME280;75708;47.930;13.782;2024-02-04T02:54:05;96897.06;;;7.50;73.58
85304;BME280;75708;47.930;13.782;2024-02-04T02:56:30;96896.03;;;7.51;74.27
85304;BME280;75708;47.930;13.782;2024-02-04T02:58:56;96878.44;;;7.56;73.42
85304;BME280;75708;47.930;13.782;2024-02-04T03:01:22;96875.91;;;7.75;71.40
85304;BME280;75708;47.930;13.782;2024-02-04T03:03:49;96891.69;;;7.70;71.69
85304;BME280;75708;47.930;13.782;2024-02-04T03:06:15;96909.66;;;7.81;71.98
85304;BME280;75708;47.930;13.782;2024-02-04T03:08:40;96900.28;;;7.65;72.29
85304;BME280;75708;47.930;13.782;2024-02-04T03:11:06;96879.97;;;7.84;70.97
85304;BME280;75708;47.930;13.782;2024-02-04T03:13:32;96883.03;;;7.87;71.29
85304;BME280;75708;47.930;13.782;2024-02-04T03:15:57;96873.66;;;7.78;72.02
85304;BME280;75708;47.930;13.782;2024-02-04T03:18:23;96867.28;;;7.86;70.50
85304;BME280;75708;47.930;13.782;2024-02-04T03:20:49;96864.81;;;7.84;71.54
85304;BME280;75708;47.930;13.782;2024-02-04T03:23:14;96862.34;;;7.89;70.38
85304;BME280;75708;47.930;13.782;2024-02-04T03:25:40;96853.44;;;7.71;71.94
85304;BME280;75708;47.930;13.782;2024-02-04T03:28:06;96844.59;;;7.77;71.10
85304;BME280;75708;47.930;13.782;2024-02-04T03:30:32;96851.41;;;7.66;72.52
85304;BME280;75708;47.930;13.782;2024-02-04T03:32:57;96843.25;;;7.61;72.29
85304;BME280;75708;47.930;13.782;2024-02-04T03:35:23;96840.19;;;7.64;71.71
85304;BME280;75708;47.930;13.782;2024-02-04T03:37:49;96870.25;;;7.58;72.94
85304;BME280;75708;47.930;13.782;2024-02-04T03:40:14;96880.75;;;7.46;73.30
85304;BME280;75708;47.930;13.782;2024-02-04T03:42:40;96875.41;;;7.40;73.99
85304;BME280;75708;47.930;13.782;2024-02-04T03:45:06;96867.41;;;7.53;73.09
85304;BME280;75708;47.930;13.782;2024-02-04T03:47:32;96875.56;;;7.65;72.76
85304;BME280;75708;47.930;13.782;2024-02-04T03:49:58;96878.84;;;7.60;72.37
85304;BME280;75708;47.930;13.782;2024-02-04T03:52:23;96879.91;;;7.46;72.90
85304;BME280;75708;47.930;13.782;2024-02-04T03:54:49;96880.50;;;7.54;72.78
85304;BME280;75708;47.930;13.782;2024-02-04T03:57:14;96877.03;;;7.54;73.11
85304;BME280;75708;47.930;13.782;2024-02-04T03:59:44;96872.50;;;7.61;72.47
85304;BME280;75708;47.930;13.782;2024-02-04T04:02:11;96876.59;;;7.64;71.75
85304;BME280;75708;47.930;13.782;2024-02-04T04:04:39;96881.09;;;7.56;72.42
85304;BME280;75708;47.930;13.782;2024-02-04T04:07:06;96892.09;;;7.67;71.45
85304;BME280;75708;47.930;13.782;2024-02-04T04:09:32;96899.91;;;7.62;71.85
85304;BME280;75708;47.930;13.782;2024-02-04T04:11:58;96903.34;;;7.69;72.20
85304;BME280;75708;47.930;13.782;2024-02-04T04:14:23;96891.69;;;7.70;70.54
85304;BME280;75708;47.930;13.782;2024-02-04T04:16:49;96898.78;;;7.89;69.12
85304;BME280;75708;47.930;13.782;2024-02-04T04:19:14;96908.41;;;7.83;70.76
85304;BME280;75708;47.930;13.782;2024-02-04T04:21:40;96901.69;;;7.74;70.89
85304;BME280;75708;47.930;13.782;2024-02-04T04:24:06;96921.19;;;7.62;72.27
85304;BME280;75708;47.930;13.782;2024-02-04T04:26:32;96920.19;;;7.49;74.63
85304;BME280;75708;47.930;13.782;2024-02-04T04:28:59;96890.13;;;7.42;73.55
85304;BME280;75708;47.930;13.782;2024-02-04T04:31:24;96915.34;;;7.27;76.26
85304;BME280;75708;47.930;13.782;2024-02-04T04:33:50;96917.38;;;7.18;76.99
85304;BME280;75708;47.930;13.782;2024-02-04T04:36:17;96936.41;;;7.08;77.59
85304;BME280;75708;47.930;13.782;2024-02-04T04:38:43;96927.78;;;7.26;76.67
85304;BME280;75708;47.930;13.782;2024-02-04T04:41:09;96933.34;;;6.98;79.23
85304;BME280;75708;47.930;13.782;2024-02-04T04:43:37;96930.28;;;7.01;77.45
85304;BME280;75708;47.930;13.782;2024-02-04T04:46:04;96939.28;;;7.00;78.02
85304;BME280;75708;47.930;13.782;2024-02-04T04:48:29;96943.16;;;6.91;79.59
85304;BME280;75708;47.930;13.782;2024-02-04T04:50:55;96951.53;;;6.95;79.57
85304;BME280;75708;47.930;13.782;2024-02-04T04:53:21;96919.88;;;6.67;79.48
85304;BME280;75708;47.930;13.782;2024-02-04T04:55:46;96945.19;;;6.83;80.81
85304;BME280;75708;47.930;13.782;2024-02-04T04:58:12;96928.66;;;6.67;79.80
85304;BME280;75708;47.930;13.782;2024-02-04T05:00:38;96939.66;;;6.77;80.55
85304;BME280;75708;47.930;13.782;2024-02-04T05:03:04;96945.00;;;6.84;80.87
85304;BME280;75708;47.930;13.782;2024-02-04T05:05:30;96943.34;;;6.83;80.89
85304;BME280;75708;47.930;13.782;2024-02-04T05:07:55;96964.59;;;6.76;81.27
85304;BME280;75708;47.930;13.782;2024-02-04T05:10:21;96975.56;;;6.60;82.49
85304;BME280;75708;47.930;13.782;2024-02-04T05:12:47;96958.63;;;6.48;83.09
85304;BME280;75708;47.930;13.782;2024-02-04T05:15:13;96957.19;;;6.46;84.92
85304;BME280;75708;47.930;13.782;2024-02-04T05:17:38;96950.03;;;6.33;84.92
85304;BME280;75708;47.930;13.782;2024-02-04T05:20:05;96967.84;;;6.59;82.86
85304;BME280;75708;47.930;13.782;2024-02-04T05:22:32;96982.94;;;6.58;82.68
85304;BME280;75708;47.930;13.782;2024-02-04T05:24:57;96967.16;;;6.37;84.99
85304;BME280;75708;47.930;13.782;2024-02-04T05:27:24;96977.38;;;6.40;85.34
85304;BME280;75708;47.930;13.782;2024-02-04T05:29:49;96971.91;;;6.48;84.07
85304;BME280;75708;47.930;13.782;2024-02-04T05:32:15;96949.59;;;6.29;85.37
85304;BME280;75708;47.930;13.782;2024-02-04T05:34:41;96951.63;;;6.27;84.75
85304;BME280;75708;47.930;13.782;2024-02-04T05:37:06;96962.28;;;6.47;84.26
85304;BME280;75708;47.930;13.782;2024-02-04T05:39:32;96951.88;;;6.39;84.40
85304;BME280;75708;47.930;13.782;2024-02-04T05:41:58;96971.47;;;6.51;83.84
85304;BME280;75708;47.930;13.782;2024-02-04T05:44:23;96944.94;;;6.38;82.87
85304;BME280;75708;47.930;13.782;2024-02-04T05:46:50;96937.16;;;6.36;84.52
85304;BME280;75708;47.930;13.782;2024-02-04T05:49:16;96956.75;;;6.42;83.78
85304;BME280;75708;47.930;13.782;2024-02-04T05:51:42;96964.50;;;6.37;85.03
85304;BME280;75708;47.930;13.782;2024-02-04T05:54:08;96977.13;;;6.28;86.46
85304;BME280;75708;47.930;13.782;2024-02-04T05:56:34;96971.25;;;6.33;85.29
85304;BME280;75708;47.930;13.782;2024-02-04T05:59:00;96972.22;;;6.19;85.95
85304;BME280;75708;47.930;13.782;2024-02-04T06:01:26;96976.50;;;6.13;85.27
85304;BME280;75708;47.930;13.782;2024-02-04T06:03:51;96973.28;;;6.24;86.78
85304;BME280;75708;47.930;13.782;2024-02-04T06:06:18;96975.06;;;6.17;87.55
85304;BME280;75708;47.930;13.782;2024-02-04T06:08:48;96980.16;;;6.19;85.52
85304;BME280;75708;47.930;13.782;2024-02-04T06:11:14;96981.81;;;6.20;85.78
85304;BME280;75708;47.930;13.782;2024-02-04T06:13:42;96978.72;;;6.16;87.27
85304;BME280;75708;47.930;13.782;2024-02-04T06:16:08;96963.16;;;6.00;87.24
85304;BME280;75708;47.930;13.782;2024-02-04T06:18:35;96975.06;;;6.17;85.67
85304;BME280;75708;47.930;13.782;2024-02-04T06:21:07;96985.22;;;6.07;88.96
85304;BME280;75708;47.930;13.782;2024-02-04T06:23:33;96986.25;;;6.06;89.15
85304;BME280;75708;47.930;13.782;2024-02-04T06:26:00;96969.06;;;5.95;88.45
85304;BME280;75708;47.930;13.782;2024-02-04T06:28:26;96986.44;;;6.04;88.92
85304;BME280;75708;47.930;13.782;2024-02-04T06:30:52;96988.09;;;6.12;87.57
85304;BME280;75708;47.930;13.782;2024-02-04T06:33:18;96971.72;;;5.95;90.00
85304;BME280;75708;47.930;13.782;2024-02-04T06:35:44;96977.88;;;6.02;89.29
85304;BME280;75708;47.930;13.782;2024-02-04T06:38:10;96970.34;;;6.06;87.37
85304;BME280;75708;47.930;13.782;2024-02-04T06:40:35;96915.06;;;5.62;89.10
85304;BME280;75708;47.930;13.782;2024-02-04T06:43:01;96938.25;;;5.94;86.95
85304;BME280;75708;47.930;13.782;2024-02-04T06:45:27;96964.78;;;5.94;89.69
85304;BME280;75708;47.930;13.782;2024-02-04T06:47:52;96980.31;;;5.97;89.60
85304;BME280;75708;47.930;13.782;2024-02-04T06:50:18;96949.84;;;5.87;88.79
85304;BME280;75708;47.930;13.782;2024-02-04T06:52:44;96977.91;;;6.16;87.90
85304;BME280;75708;47.930;13.782;2024-02-04T06:55:10;96934.19;;;5.98;88.58
85304;BME280;75708;47.930;13.782;2024-02-04T06:57:36;96959.31;;;6.09;87.66
85304;BME280;75708;47.930;13.782;2024-02-04T07:00:02;96951.53;;;6.01;88.46
85304;BME280;75708;47.930;13.782;2024-02-04T07:02:33;96968.16;;;6.23;87.47
85304;BME280;75708;47.930;13.782;2024-02-04T07:04:59;96948.72;;;6.16;88.14
85304;BME280;75708;47.930;13.782;2024-02-04T07:07:25;96958.31;;;6.17;88.08
85304;BME280;75708;47.930;13.782;2024-02-04T07:09:50;96966.69;;;6.14;89.62
85304;BME280;75708;47.930;13.782;2024-02-04T07:12:16;96957.94;;;6.20;88.70
85304;BME280;75708;47.930;13.782;2024-02-04T07:14:42;96986.94;;;6.34;87.74
85304;BME280;75708;47.930;13.782;2024-02-04T07:17:08;96949.53;;;6.16;88.40
85304;BME280;75708;47.930;13.782;2024-02-04T07:19:33;96963.03;;;6.21;89.42
85304;BME280;75708;47.930;13.782;2024-02-04T07:22:01;96967.34;;;6.22;89.85
85304;BME280;75708;47.930;13.782;2024-02-04T07:24:27;96987.56;;;6.30;89.85
85304;BME280;75708;47.930;13.782;2024-02-04T07:26:52;96970.38;;;6.26;89.35
85304;BME280;75708;47.930;13.782;2024-02-04T07:29:18;96966.53;;;6.28;88.87
85304;BME280;75708;47.930;13.782;2024-02-04T07:31:44;96973.66;;;6.28;89.84
85304;BME280;75708;47.930;13.782;2024-02-04T07:34:10;96954.91;;;6.42;88.15
85304;BME280;75708;47.930;13.782;2024-02-04T07:36:36;96966.78;;;6.53;88.43
85304;BME280;75708;47.930;13.782;2024-02-04T07:39:02;96961.91;;;6.57;89.06
85304;BME280;75708;47.930;13.782;2024-02-04T07:41:30;96951.88;;;6.52;87.44
85304;BME280;75708;47.930;13.782;2024-02-04T07:43:56;96954.75;;;6.51;88.09
85304;BME280;75708;47.930;13.782;2024-02-04T07:46:22;96927.38;;;6.43;86.58
85304;BME280;75708;47.930;13.782;2024-02-04T07:48:48;96932.28;;;6.53;86.73
85304;BME280;75708;47.930;13.782;2024-02-04T07:51:13;96931.06;;;6.56;86.62
85304;BME280;75708;47.930;13.782;2024-02-04T07:53:39;96959.25;;;6.63;87.85
85304;BME280;75708;47.930;13.782;2024-02-04T07:56:05;96950.03;;;6.53;88.29
85304;BME280;75708;47.930;13.782;2024-02-04T07:58:32;96930.22;;;6.42;88.83
85304;BME280;75708;47.930;13.782;2024-02-04T08:00:58;96942.06;;;6.46;88.95
85304;BME280;75708;47.930;13.782;2024-02-04T08:03:24;96957.81;;;6.61;88.85
85304;BME280;75708;47.930;13.782;2024-02-04T08:05:50;96972.53;;;6.63;89.37
85304;BME280;75708;47.930;13.782;2024-02-04T08:08:15;96955.16;;;6.61;89.68
85304;BME280;75708;47.930;13.782;2024-02-04T08:10:42;96951.09;;;6.58;89.99
85304;BME280;75708;47.930;13.782;2024-02-04T08:13:08;96953.13;;;6.69;89.88
85304;BME280;75708;47.930;13.782;2024-02-04T08:15:34;96967.66;;;6.73;89.28
85304;BME280;75708;47.930;13.782;2024-02-04T08:18:00;96966.19;;;6.58;88.32
85304;BME280;75708;47.930;13.782;2024-02-04T08:20:26;96951.88;;;6.52;88.43
85304;BME280;75708;47.930;13.782;2024-02-04T08:22:52;96966.59;;;6.61;88.49
85304;BME280;75708;47.930;13.782;2024-02-04T08:25:18;96958.81;;;6.47;89.12
85304;BME280;75708;47.930;13.782;2024-02-04T08:27:44;96968.47;;;6.67;88.95
85304;BME280;75708;47.930;13.782;2024-02-04T08:30:10;96969.44;;;6.53;89.61
85304;BME280;75708;47.930;13.782;2024-02-04T08:32:37;96970.88;;;6.62;89.22
85304;BME280;75708;47.930;13.782;2024-02-04T08:35:04;96962.72;;;6.64;90.33
85304;BME280;75708;47.930;13.782;2024-02-04T08:37:32;96980.72;;;6.75;89.97
85304;BME280;75708;47.930;13.782;2024-02-04T08:40:01;96955.38;;;6.66;90.46
85304;BME280;75708;47.930;13.782;2024-02-04T08:42:29;96970.88;;;6.62;90.16
85304;BME280;75708;47.930;13.782;2024-02-04T08:44:55;96939.66;;;6.64;89.96
85304;BME280;75708;47.930;13.782;2024-02-04T08:47:20;96952.94;;;6.64;90.73
85304;BME280;75708;47.930;13.782;2024-02-04T08:49:46;96972.34;;;6.78;90.71
85304;BME280;75708;47.930;13.782;2024-02-04T08:52:12;96960.69;;;6.79;89.80
85304;BME280;75708;47.930;13.782;2024-02-04T08:54:37;96971.53;;;6.84;89.80
85304;BME280;75708;47.930;13.782;2024-02-04T08:57:03;96986.84;;;6.89;89.41
85304;BME280;75708;47.930;13.782;2024-02-04T08:59:29;96955.59;;;6.97;88.12
85304;BME280;75708;47.930;13.782;2024-02-04T09:01:55;96960.94;;;7.10;87.40
85304;BME280;75708;47.930;13.782;2024-02-04T09:04:21;96937.81;;;7.04;85.97
85304;BME280;75708;47.930;13.782;2024-02-04T09:06:46;96943.75;;;7.20;85.55
85304;BME280;75708;47.930;13.782;2024-02-04T09:09:12;96949.25;;;7.31;84.45
85304;BME280;75708;47.930;13.782;2024-02-04T09:11:38;96938.81;;;7.43;85.50
85304;BME280;75708;47.930;13.782;2024-02-04T09:14:03;96931.22;;;7.53;83.50
85304;BME280;75708;47.930;13.782;2024-02-04T09:16:29;96943.06;;;7.57;80.77
85304;BME280;75708;47.930;13.782;2024-02-04T09:18:55;96935.28;;;7.62;82.25
85304;BME280;75708;47.930;13.782;2024-02-04T09:21:21;96920.97;;;7.56;82.69
85304;BME280;75708;47.930;13.782;2024-02-04T09:23:47;96943.44;;;7.67;82.34
85304;BME280;75708;47.930;13.782;2024-02-04T09:26:13;96912.22;;;7.56;81.86
85304;BME280;75708;47.930;13.782;2024-02-04T09:28:39;96932.56;;;7.75;81.05
85304;BME280;75708;47.930;13.782;2024-02-04T09:31:08;96927.25;;;7.75;80.93
85304;BME280;75708;47.930;13.782;2024-02-04T09:33:34;96914.84;;;7.63;80.31
85304;BME280;75708;47.930;13.782;2024-02-04T09:36:00;96924.84;;;7.67;80.32
85304;BME280;75708;47.930;13.782;2024-02-04T09:38:26;96923.56;;;7.76;80.19
85304;BME280;75708;47.930;13.782;2024-02-04T09:40:52;96933.50;;;8.01;79.84
85304;BME280;75708;47.930;13.782;2024-02-04T09:43:18;96939.06;;;7.99;78.63
85304;BME280;75708;47.930;13.782;2024-02-04T09:45:44;96921.88;;;7.95;79.56
85304;BME280;75708;47.930;13.782;2024-02-04T09:48:10;96904.72;;;7.91;79.90
85304;BME280;75708;47.930;13.782;2024-02-04T09:50:37;96911.28;;;8.33;77.78
85304;BME280;75708;47.930;13.782;2024-02-04T09:53:07;96909.03;;;8.23;77.92
85304;BME280;75708;47.930;13.782;2024-02-04T09:55:34;96909.53;;;8.52;77.16
85304;BME280;75708;47.930;13.782;2024-02-04T09:58:00;96911.66;;;8.37;75.36
85304;BME280;75708;47.930;13.782;2024-02-04T10:00:27;96910.63;;;8.38;77.09
85304;BME280;75708;47.930;13.782;2024-02-04T10:02:55;96923.31;;;8.42;76.85
85304;BME280;75708;47.930;13.782;2024-02-04T10:05:21;96924.13;;;8.36;76.58
85304;BME280;75708;47.930;13.782;2024-02-04T10:07:47;96915.72;;;8.39;77.75
85304;BME280;75708;47.930;13.782;2024-02-04T10:10:13;96897.63;;;8.10;76.23
85304;BME280;75708;47.930;13.782;2024-02-04T10:12:38;96917.44;;;8.20;77.61
85304;BME280;75708;47.930;13.782;2024-02-04T10:15:07;96910.63;;;8.38;75.54
85304;BME280;75708;47.930;13.782;2024-02-04T10:17:33;96903.91;;;8.35;78.17
85304;BME280;75708;47.930;13.782;2024-02-04T10:20:00;96912.25;;;8.39;77.36
85304;BME280;75708;47.930;13.782;2024-02-04T10:22:26;96911.38;;;8.45;76.57
85304;BME280;75708;47.930;13.782;2024-02-04T10:24:53;96923.41;;;8.54;76.49
85304;BME280;75708;47.930;13.782;2024-02-04T10:27:19;96913.22;;;8.51;75.67
85304;BME280;75708;47.930;13.782;2024-02-04T10:29:45;96904.03;;;8.72;76.86
85304;BME280;75708;47.930;13.782;2024-02-04T10:32:11;96877.25;;;8.66;74.71
85304;BME280;75708;47.930;13.782;2024-02-04T10:34:38;96890.91;;;8.77;74.25
85304;BME280;75708;47.930;13.782;2024-02-04T10:37:05;96894.25;;;8.90;73.24
85304;BME280;75708;47.930;13.782;2024-02-04T10:39:31;96884.69;;;9.07;72.93
85304;BME280;75708;47.930;13.782;2024-02-04T10:42:01;96896.06;;;8.96;72.42
85304;BME280;75708;47.930;13.782;2024-02-04T10:44:28;96875.72;;;9.02;73.00
85304;BME280;75708;47.930;13.782;2024-02-04T10:47:05;96885.56;;;9.01;72.68
85304;BME280;75708;47.930;13.782;2024-02-04T10:49:33;96905.31;;;8.94;72.54
85304;BME280;75708;47.930;13.782;2024-02-04T10:52:00;96890.06;;;9.01;74.58
85304;BME280;75708;47.930;13.782;2024-02-04T10:54:30;96872.31;;;8.95;71.63
85304;BME280;75708;47.930;13.782;2024-02-04T10:57:02;96887.41;;;9.01;72.79
85304;BME280;75708;47.930;13.782;2024-02-04T10:59:31;96878.44;;;8.95;71.52
85304;BME280;75708;47.930;13.782;2024-02-04T11:01:58;96861.75;;;8.82;71.81
85304;BME280;75708;47.930;13.782;2024-02-04T11:04:25;96890.75;;;8.96;72.61
85304;BME280;75708;47.930;13.782;2024-02-04T11:06:52;96867.47;;;8.85;72.11
85304;BME280;75708;47.930;13.782;2024-02-04T11:09:19;96854.34;;;8.84;72.89
85304;BME280;75708;47.930;13.782;2024-02-04T11:11:45;96862.47;;;8.95;71.41
85304;BME280;75708;47.930;13.782;2024-02-04T11:14:14;96857.00;;;9.09;71.64
85304;BME280;75708;47.930;13.782;2024-02-04T11:19:38;96851.88;;;9.07;71.86
85304;BME280;75708;47.930;13.782;2024-02-04T11:27:28;96831.25;;;9.57;71.02
85304;BME280;75708;47.930;13.782;2024-02-04T11:29:54;96843.03;;;9.50;69.68
85304;BME280;75708;47.930;13.782;2024-02-04T11:32:20;96802.59;;;9.34;71.27
85304;BME280;75708;47.930;13.782;2024-02-04T11:34:46;96836.06;;;9.30;71.42
85304;BME280;75708;47.930;13.782;2024-02-04T11:37:19;96819.09;;;9.43;70.89
85304;BME280;75708;47.930;13.782;2024-02-04T11:39:51;96825.75;;;9.34;72.63
85304;BME280;75708;47.930;13.782;2024-02-04T11:42:17;96814.66;;;9.37;71.29
85304;BME280;75708;47.930;13.782;2024-02-04T11:44:44;96798.88;;;9.35;70.31
85304;BME280;75708;47.930;13.782;2024-02-04T11:47:10;96824.94;;;9.70;69.08
85304;BME280;75708;47.930;13.782;2024-02-04T11:49:36;96818.16;;;9.37;69.73
85304;BME280;75708;47.930;13.782;2024-02-04T11:52:02;96807.78;;;9.48;68.97
85304;BME280;75708;47.930;13.782;2024-02-04T11:54:28;96806.66;;;9.37;68.41
85304;BME280;75708;47.930;13.782;2024-02-04T11:56:54;96816.69;;;9.23;71.49
85304;BME280;75708;47.930;13.782;2024-02-04T11:59:25;96816.59;;;9.48;70.08
85304;BME280;75708;47.930;13.782;2024-02-04T12:02:04;96808.69;;;9.71;69.46
85304;BME280;75708;47.930;13.782;2024-02-04T12:04:31;96796.88;;;9.49;68.90
85304;BME280;75708;47.930;13.782;2024-02-04T12:06:58;96802.81;;;9.81;68.45
85304;BME280;75708;47.930;13.782;2024-02-04T12:09:24;96789.22;;;10.01;68.86
85304;BME280;75708;47.930;13.782;2024-02-04T12:11:53;96793.19;;;9.80;70.13
85304;BME280;75708;47.930;13.782;2024-02-04T12:14:19;96784.16;;;9.81;68.03
85304;BME280;75708;47.930;13.782;2024-02-04T12:16:45;96784.09;;;9.99;67.87
85304;BME280;75708;47.930;13.782;2024-02-04T12:19:11;96788.13;;;9.90;68.58
85304;BME280;75708;47.930;13.782;2024-02-04T12:21:37;96785.97;;;9.99;66.74
85304;BME280;75708;47.930;13.782;2024-02-04T12:24:03;96787.69;;;9.93;66.52
85304;BME280;75708;47.930;13.782;2024-02-04T12:26:29;96780.28;;;10.07;66.26
85304;BME280;75708;47.930;13.782;2024-02-04T12:28:55;96776.19;;;9.93;67.48
85304;BME280;75708;47.930;13.782;2024-02-04T12:31:24;96767.88;;;10.01;66.58
85304;BME280;75708;47.930;13.782;2024-02-04T12:33:54;96756.22;;;9.95;66.69
85304;BME280;75708;47.930;13.782;2024-02-04T12:36:20;96750.19;;;10.18;64.98
85304;BME280;75708;47.930;13.782;2024-02-04T12:38:56;96759.19;;;10.17;65.91
85304;BME280;75708;47.930;13.782;2024-02-04T12:41:22;96744.31;;;10.09;65.51
85304;BME280;75708;47.930;13.782;2024-02-04T12:43:57;96759.88;;;10.12;66.76
85304;BME280;75708;47.930;13.782;2024-02-04T12:46:24;96754.69;;;10.29;65.30
85304;BME280;75708;47.930;13.782;2024-02-04T12:48:53;96763.69;;;10.05;67.76
85304;BME280;75708;47.930;13.782;2024-02-04T12:54:03;96752.19;;;10.04;68.35
85304;BME280;75708;47.930;13.782;2024-02-04T12:59:11;96755.84;;;10.22;67.35
85304;BME280;75708;47.930;13.782;2024-02-04T13:01:40;96748.03;;;10.08;65.59
85304;BME280;75708;47.930;13.782;2024-02-04T13:04:06;96753.66;;;10.18;67.11
85304;BME280;75708;47.930;13.782;2024-02-04T13:06:37;96753.72;;;10.00;67.95
85304;BME280;75708;47.930;13.782;2024-02-04T13:09:03;96721.09;;;9.98;67.33
85304;BME280;75708;47.930;13.782;2024-02-04T13:11:31;96732.69;;;9.92;67.00
85304;BME280;75708;47.930;13.782;2024-02-04T13:13:57;96740.09;;;9.90;67.58
85304;BME280;75708;47.930;13.782;2024-02-04T13:16:22;96734.16;;;9.88;67.16